Time;durP1;ratioP1;P1;durP2;ratioP2;P2;SDS_P1;SDS_P2;PMS_P1;PMS_P2;Temp;Humidity;BMP_temperature;BMP_pressure;BME280_temperature;BME280_humidity;BME280_pressure;Samples;Min_cycle;Max_cycle;Signal;HPM_P1;HPM_P2
2022/06/19 00:01:59;;;;;;;13.65;3.65;;;;;;;20.63;71.07;97739.75;5065787;28;20028;-65
2022/06/19 00:04:25;;;;;;;11.77;3.72;;;;;;;20.84;70.60;97739.00;5065366;28;20109;-65
2022/06/19 00:06:50;;;;;;;18.58;4.57;;;;;;;21.00;70.39;97736.91;5052067;28;20038;-65
2022/06/19 00:09:17;;;;;;;31.58;3.95;;;;;;;21.32;67.44;97738.97;5046468;28;20017;-65
2022/06/19 00:11:42;;;;;;;7.53;3.53;;;;;;;21.78;67.16;97742.50;5046200;28;20049;-65
2022/06/19 00:14:09;;;;;;;8.55;3.22;;;;;;;21.97;65.89;97740.09;5060873;28;20021;-65
2022/06/19 00:16:35;;;;;;;27.65;4.00;;;;;;;22.13;63.16;97740.56;5053978;28;20028;-65
2022/06/19 00:19:00;;;;;;;12.73;3.72;;;;;;;22.74;61.41;97737.34;5046044;28;20029;-65
2022/06/19 00:21:26;;;;;;;19.77;3.42;;;;;;;23.00;60.49;97746.81;5063038;28;20036;-65
2022/06/19 00:23:51;;;;;;;20.88;4.85;;;;;;;23.58;57.47;97735.56;5065158;28;20051;-65
2022/06/19 00:26:17;;;;;;;15.73;3.53;;;;;;;23.58;57.99;97735.56;5056594;28;20136;-65
2022/06/19 00:28:44;;;;;;;21.42;4.15;;;;;;;23.80;56.92;97734.56;5045777;28;20025;-65
2022/06/19 00:31:10;;;;;;;25.15;5.07;;;;;;;23.81;57.47;97736.25;5045794;28;20080;-65
2022/06/19 00:33:35;;;;;;;15.07;4.25;;;;;;;24.18;55.74;97741.03;5045819;28;20221;-65
2022/06/19 00:36:01;;;;;;;12.85;4.25;;;;;;;24.28;55.58;97733.84;5046864;28;20021;-65
2022/06/19 00:38:26;;;;;;;12.65;3.55;;;;;;;24.20;55.85;97739.03;5045936;28;20048;-65
2022/06/19 00:40:56;;;;;;;20.77;4.60;;;;;;;24.51;54.68;97738.03;5045658;28;20092;-65
2022/06/19 00:43:21;;;;;;;17.85;5.00;;;;;;;24.34;55.57;97740.50;5056962;28;20025;-65
2022/06/19 00:45:50;;;;;;;10.23;3.10;;;;;;;24.05;56.65;97729.66;5058805;28;20021;-65
2022/06/19 00:48:30;;;;;;;14.40;3.80;;;;;;;23.88;57.50;97732.91;5045509;28;20028;-65
2022/06/19 00:50:59;;;;;;;14.80;4.28;;;;;;;23.56;58.45;97729.47;5045686;28;20049;-65
2022/06/19 00:53:31;;;;;;;15.82;4.22;;;;;;;23.33;59.56;97722.53;5045335;28;20028;-65
2022/06/19 00:55:57;;;;;;;18.17;4.82;;;;;;;23.10;60.60;97728.94;5052509;28;20025;-65
2022/06/19 00:58:27;;;;;;;14.25;3.85;;;;;;;22.94;61.50;97732.03;5064459;28;20320;-65
2022/06/19 01:01:07;;;;;;;19.45;4.15;;;;;;;23.05;60.48;97732.03;5054211;28;20389;-65
2022/06/19 01:03:51;;;;;;;17.65;5.07;;;;;;;23.62;58.76;97728.94;5045134;28;20231;-65
2022/06/19 01:06:17;;;;;;;20.40;4.70;;;;;;;23.77;58.91;97745.56;5071657;28;20096;-65
2022/06/19 01:08:42;;;;;;;14.10;3.83;;;;;;;24.08;57.30;97734.72;5064479;28;20024;-65
2022/06/19 01:11:08;;;;;;;13.15;4.13;;;;;;;23.99;57.85;97730.19;5064451;28;20028;-65
2022/06/19 01:13:36;;;;;;;15.20;4.50;;;;;;;23.66;59.31;97730.38;5055208;28;20032;-65
2022/06/19 01:16:04;;;;;;;18.77;4.60;;;;;;;23.33;60.88;97733.25;5057348;28;20016;-65
2022/06/19 01:18:33;;;;;;;17.75;4.20;;;;;;;23.11;61.52;97725.28;5064379;28;20035;-65
2022/06/19 01:21:10;;;;;;;12.52;4.40;;;;;;;22.99;62.73;97728.97;5044891;28;20029;-65
2022/06/19 01:23:46;;;;;;;12.82;4.30;;;;;;;22.84;62.29;97722.19;5051747;28;20041;-65
2022/06/19 01:26:14;;;;;;;11.60;3.60;;;;;;;22.68;63.59;97725.31;5055947;28;20029;-65
2022/06/19 01:28:49;;;;;;;14.85;4.78;;;;;;;22.46;65.60;97721.81;5063770;28;20066;-65
2022/06/19 01:31:17;;;;;;;11.57;3.80;;;;;;;22.37;65.53;97719.84;5064328;28;20198;-65
2022/06/19 01:33:57;;;;;;;24.92;5.60;;;;;;;22.23;66.40;97720.09;5062143;28;20024;-65
2022/06/19 01:36:25;;;;;;;14.60;4.15;;;;;;;22.08;66.50;97716.81;5058130;28;20071;-65
2022/06/19 01:38:53;;;;;;;15.25;4.88;;;;;;;22.06;65.89;97717.94;5044579;28;20033;-65
2022/06/19 01:41:25;;;;;;;14.60;5.30;;;;;;;21.96;67.43;97712.44;5044456;28;20332;-65
2022/06/19 01:43:51;;;;;;;20.58;4.93;;;;;;;21.87;66.81;97712.31;5044338;28;20029;-65
2022/06/19 01:46:17;;;;;;;10.50;4.60;;;;;;;21.84;67.52;97712.56;5045598;28;20216;-65
2022/06/19 01:48:43;;;;;;;12.32;4.18;;;;;;;21.75;68.45;97713.28;5044450;28;20031;-65
2022/06/19 01:51:09;;;;;;;19.63;5.22;;;;;;;21.67;68.67;97718.38;5063990;28;20048;-65
2022/06/19 01:53:42;;;;;;;17.52;4.68;;;;;;;21.56;69.76;97718.34;5063670;28;20245;-65
2022/06/19 01:56:10;;;;;;;12.15;3.97;;;;;;;21.39;71.05;97727.69;5051525;28;20303;-65
2022/06/19 01:58:39;;;;;;;21.75;5.03;;;;;;;21.13;71.94;97721.63;5044252;28;20339;-65
2022/06/19 02:01:07;;;;;;;25.88;5.80;;;;;;;20.89;73.12;97723.44;5044218;28;20036;-65
2022/06/19 02:03:37;;;;;;;14.77;4.85;;;;;;;20.77;73.66;97716.34;5044078;28;20341;-65
2022/06/19 02:06:04;;;;;;;16.63;4.47;;;;;;;20.61;74.17;97713.13;5044088;28;20033;-65
2022/06/19 02:08:33;;;;;;;14.00;4.78;;;;;;;20.56;74.75;97709.91;5044177;28;20029;-65
2022/06/19 02:10:59;;;;;;;18.88;5.28;;;;;;;20.46;75.10;97706.22;5044074;28;20333;-65
2022/06/19 02:13:25;;;;;;;10.48;4.63;;;;;;;20.37;76.21;97704.22;5054529;28;20338;-65
2022/06/19 02:15:53;;;;;;;16.05;5.03;;;;;;;20.30;76.30;97708.28;5055136;28;20025;-65
2022/06/19 02:18:33;;;;;;;17.45;4.82;;;;;;;20.25;76.73;97699.75;5063098;28;20021;-65
2022/06/19 02:20:59;;;;;;;17.48;4.97;;;;;;;20.19;77.01;97705.53;5063363;28;20032;-65
2022/06/19 02:23:34;;;;;;;20.75;5.18;;;;;;;20.03;77.19;97702.22;5062804;28;20040;-65
2022/06/19 02:26:00;;;;;;;12.63;5.28;;;;;;;19.98;77.95;97698.19;5048549;28;20345;-65
2022/06/19 02:28:27;;;;;;;19.30;4.50;;;;;;;19.98;78.61;97707.06;5044879;28;20269;-65
2022/06/19 02:30:53;;;;;;;17.88;4.05;;;;;;;19.87;79.88;97704.28;5043843;28;20033;-65
2022/06/19 02:33:23;;;;;;;17.27;4.95;;;;;;;19.65;80.93;97697.91;5043775;28;20385;-65
2022/06/19 02:35:49;;;;;;;19.42;5.00;;;;;;;19.57;81.34;97690.44;5059653;28;20031;-65
2022/06/19 02:38:18;;;;;;;17.75;4.82;;;;;;;19.50;81.93;97689.16;5062923;28;20044;-65
2022/06/19 02:41:12;;;;;;;17.13;4.95;;;;;;;19.39;82.32;97689.03;5063491;28;20308;-65
2022/06/19 02:43:37;;;;;;;21.27;5.40;;;;;;;19.43;82.54;97685.22;5060632;28;20029;-65
2022/06/19 02:46:06;;;;;;;18.33;5.32;;;;;;;19.29;82.87;97689.81;5060630;28;20208;-65
2022/06/19 02:48:32;;;;;;;16.33;4.53;;;;;;;19.50;81.84;97689.16;5049358;28;20220;-65
2022/06/19 02:51:00;;;;;;;20.33;6.63;;;;;;;19.84;79.07;97683.13;5067463;28;20027;-65
2022/06/19 02:53:25;;;;;;;12.60;6.00;;;;;;;20.27;77.17;97692.50;5066878;28;20071;-65
2022/06/19 02:55:51;;;;;;;22.15;7.88;;;;;;;21.22;73.07;97683.47;5048760;28;20021;-65
2022/06/19 02:58:20;;;;;;;23.35;6.32;;;;;;;21.45;71.66;97686.19;5047611;28;20017;-65
2022/06/19 03:00:51;;;;;;;12.73;6.53;;;;;;;22.07;69.40;97687.47;5063459;28;20342;-65
2022/06/19 03:03:25;;;;;;;17.17;7.40;;;;;;;22.53;67.29;97685.47;5065699;28;20347;-65
2022/06/19 03:05:50;;;;;;;15.73;6.75;;;;;;;22.54;67.75;97687.19;5067101;28;20028;-65
2022/06/19 03:08:16;;;;;;;12.52;6.22;;;;;;;22.52;67.47;97683.75;5066600;28;20379;-65
2022/06/19 03:10:41;;;;;;;14.88;6.72;;;;;;;22.61;66.98;97677.66;5066707;28;20347;-65
2022/06/19 03:13:07;;;;;;;15.15;5.78;;;;;;;22.96;65.85;97694.34;5066702;28;20013;-65
2022/06/19 03:15:32;;;;;;;23.08;7.00;;;;;;;23.19;65.59;97679.81;5047534;28;20198;-65
2022/06/19 03:17:58;;;;;;;12.13;7.20;;;;;;;23.26;65.30;97675.69;5059751;28;20087;-65
2022/06/19 03:20:25;;;;;;;19.50;8.27;;;;;;;23.39;65.16;97680.84;5065221;28;20032;-65
2022/06/19 03:22:51;;;;;;;13.85;6.55;;;;;;;23.54;64.21;97675.00;5066379;28;20040;-65
2022/06/19 03:25:17;;;;;;;13.63;8.13;;;;;;;23.62;64.76;97685.09;5066222;28;20328;-65
2022/06/19 03:27:43;;;;;;;11.77;6.88;;;;;;;23.79;64.05;97677.28;5058013;28;20028;-65
2022/06/19 03:30:10;;;;;;;13.10;6.55;;;;;;;23.83;62.89;97669.81;5066132;28;20078;-65
2022/06/19 03:32:35;;;;;;;18.05;6.82;;;;;;;23.78;63.38;97667.50;5063197;28;20025;-65
2022/06/19 03:35:01;;;;;;;12.15;7.82;;;;;;;23.71;64.49;97671.72;5052887;28;20045;-65
2022/06/19 03:37:26;;;;;;;14.05;8.38;;;;;;;23.76;64.97;97674.84;5065988;28;20036;-65
2022/06/19 03:39:52;;;;;;;14.88;7.47;;;;;;;23.80;65.05;97681.69;5065948;28;20056;-65
2022/06/19 03:42:17;;;;;;;13.50;7.47;;;;;;;23.85;63.85;97681.28;5061495;28;20028;-65
2022/06/19 03:44:43;;;;;;;16.55;7.65;;;;;;;24.06;63.36;97682.09;5046603;28;20028;-65
2022/06/19 03:47:08;;;;;;;17.73;8.57;;;;;;;24.00;64.30;97688.88;5064002;28;20031;-65
2022/06/19 03:49:34;;;;;;;13.73;7.32;;;;;;;24.07;63.71;97687.34;5065985;28;20059;-65
2022/06/19 03:51:59;;;;;;;20.80;8.43;;;;;;;24.18;63.34;97692.63;5064345;28;20024;-65
2022/06/19 03:54:25;;;;;;;16.88;8.40;;;;;;;24.21;64.21;97700.44;5063594;28;20016;-65
2022/06/19 03:56:50;;;;;;;15.70;7.75;;;;;;;24.29;63.25;97697.88;5046041;28;20022;-65
2022/06/19 03:59:16;;;;;;;17.88;9.32;;;;;;;24.29;64.43;97700.56;5051732;28;20052;-65
2022/06/19 04:01:42;;;;;;;13.50;8.52;;;;;;;24.25;64.02;97690.22;5057632;28;20313;-65
2022/06/19 04:04:09;;;;;;;13.93;8.77;;;;;;;24.29;64.27;97694.34;5049297;28;20032;-65
2022/06/19 04:06:37;;;;;;;19.60;8.73;;;;;;;24.35;63.80;97705.41;5059522;28;20067;-66
2022/06/19 04:09:05;;;;;;;14.23;7.80;;;;;;;24.31;65.06;97704.00;5046251;28;20031;-66
2022/06/19 04:11:31;;;;;;;12.65;8.32;;;;;;;24.44;64.54;97698.34;5051637;28;20079;-66
2022/06/19 04:13:57;;;;;;;18.45;9.32;;;;;;;24.48;64.08;97699.78;5064864;28;20021;-66
2022/06/19 04:16:25;;;;;;;13.20;7.78;;;;;;;24.46;63.64;97701.78;5046180;28;20028;-66
2022/06/19 04:18:52;;;;;;;13.43;7.93;;;;;;;24.49;61.99;97696.94;5046078;28;20029;-66
2022/06/19 04:21:21;;;;;;;14.43;8.13;;;;;;;24.60;62.96;97709.44;5046040;28;20096;-66
2022/06/19 04:23:47;;;;;;;11.05;7.75;;;;;;;24.78;61.55;97703.25;5050759;28;20037;-66
2022/06/19 04:26:15;;;;;;;16.83;7.55;;;;;;;24.87;61.44;97702.44;5065339;28;20069;-66
2022/06/19 04:28:41;;;;;;;18.48;8.30;;;;;;;25.14;59.79;97702.59;5065172;28;20024;-66
2022/06/19 04:31:07;;;;;;;12.90;7.40;;;;;;;25.27;59.75;97703.16;5058954;28;20032;-66
2022/06/19 04:33:37;;;;;;;14.90;8.18;;;;;;;25.82;58.42;97700.69;5046484;28;20220;-66
2022/06/19 04:36:03;;;;;;;14.35;7.43;;;;;;;26.48;55.89;97713.09;5060104;28;20024;-69
2022/06/19 04:38:29;;;;;;;15.30;7.43;;;;;;;26.93;55.45;97722.06;5046820;28;20382;-69
2022/06/19 04:40:55;;;;;;;17.63;7.68;;;;;;;27.45;52.71;97712.28;5045637;28;20029;-68
2022/06/19 04:43:20;;;;;;;16.77;7.32;;;;;;;27.86;51.48;97720.59;5060652;28;20029;-67
2022/06/19 04:45:46;;;;;;;18.88;7.05;;;;;;;28.15;50.88;97714.84;5065479;28;20032;-67
2022/06/19 04:48:11;;;;;;;11.35;7.00;;;;;;;28.27;49.43;97711.72;5063683;28;20031;-67
2022/06/19 04:50:36;;;;;;;15.13;6.63;;;;;;;28.52;49.25;97715.41;5045773;28;20189;-67
2022/06/19 04:53:02;;;;;;;13.02;6.75;;;;;;;29.11;49.15;97718.00;5045417;28;20089;-67
2022/06/19 04:55:27;;;;;;;18.40;6.45;;;;;;;29.20;48.19;97723.25;5045393;28;20025;-67
2022/06/19 04:57:53;;;;;;;11.15;6.10;;;;;;;29.58;47.77;97720.91;5045595;28;20092;-67
2022/06/19 05:00:20;;;;;;;10.10;6.88;;;;;;;29.30;47.33;97717.69;5046461;28;20383;-67
2022/06/19 05:02:50;;;;;;;12.93;6.25;;;;;;;29.29;48.13;97725.97;5046268;28;20351;-67
2022/06/19 05:05:17;;;;;;;11.52;6.35;;;;;;;28.98;48.53;97723.84;5049882;28;20208;-68
2022/06/19 05:07:42;;;;;;;12.90;6.88;;;;;;;28.53;49.75;97717.09;5063698;28;20025;-68
2022/06/19 05:10:09;;;;;;;14.85;6.55;;;;;;;28.48;50.43;97725.72;5063165;28;20372;-68
2022/06/19 05:12:36;;;;;;;13.23;6.47;;;;;;;29.12;48.34;97728.66;5057679;28;20025;-68
2022/06/19 05:15:01;;;;;;;15.90;6.57;;;;;;;29.70;47.46;97727.72;5044996;28;20025;-68
2022/06/19 05:17:27;;;;;;;12.15;6.32;;;;;;;29.85;47.35;97729.56;5046071;28;20047;-68
2022/06/19 05:19:52;;;;;;;10.35;5.65;;;;;;;30.29;46.43;97728.16;5044966;28;20025;-68
2022/06/19 05:22:18;;;;;;;15.38;6.72;;;;;;;31.12;43.62;97732.06;5044795;28;20021;-68
2022/06/19 05:24:43;;;;;;;15.82;6.30;;;;;;;31.14;44.88;97740.91;5051358;28;20079;-68
2022/06/19 05:27:10;;;;;;;14.07;7.13;;;;;;;31.31;44.01;97730.81;5063823;28;20033;-67
2022/06/19 05:29:36;;;;;;;10.63;6.60;;;;;;;31.76;42.94;97742.50;5062769;28;20024;-67
2022/06/19 05:32:04;;;;;;;10.05;6.68;;;;;;;31.97;43.65;97729.06;5064073;28;20025;-67
2022/06/19 05:34:34;;;;;;;14.00;7.03;;;;;;;32.15;42.64;97743.19;5064006;28;20028;-67
2022/06/19 05:37:00;;;;;;;14.85;6.15;;;;;;;32.19;41.89;97743.66;5062619;28;20051;-67
2022/06/19 05:39:26;;;;;;;11.70;6.40;;;;;;;32.55;42.67;97745.50;5046176;28;20025;-67
2022/06/19 05:41:52;;;;;;;11.75;6.18;;;;;;;32.39;41.73;97732.06;5056877;28;20070;-67
2022/06/19 05:44:18;;;;;;;12.63;7.00;;;;;;;32.87;40.73;97739.69;5063009;28;20021;-67
2022/06/19 05:46:43;;;;;;;16.27;5.80;;;;;;;33.41;38.88;97742.03;5063502;28;20375;-67
2022/06/19 05:49:09;;;;;;;11.75;6.43;;;;;;;33.53;38.88;97729.56;5050860;28;20360;-67
2022/06/19 05:51:35;;;;;;;11.45;5.90;;;;;;;33.55;39.57;97727.47;5044377;28;20224;-67
2022/06/19 05:54:01;;;;;;;11.27;5.80;;;;;;;33.77;38.99;97737.34;5055271;28;20063;-67
2022/06/19 05:56:27;;;;;;;10.25;5.70;;;;;;;34.10;38.50;97738.50;5061174;28;20025;-67
2022/06/19 05:58:54;;;;;;;13.20;5.95;;;;;;;34.04;39.16;97725.66;5062899;28;20025;-67
2022/06/19 06:01:21;;;;;;;13.68;6.00;;;;;;;34.13;38.99;97721.72;5062944;28;20078;-67
2022/06/19 06:03:47;;;;;;;12.95;5.85;;;;;;;34.29;38.08;97710.50;5048291;28;20025;-67
2022/06/19 06:06:19;;;;;;;9.85;5.93;;;;;;;34.25;37.74;97720.13;5053693;28;20044;-68
2022/06/19 06:08:45;;;;;;;10.68;6.10;;;;;;;34.70;37.38;97727.78;5063604;28;20021;-67
2022/06/19 06:11:11;;;;;;;7.78;5.45;;;;;;;34.65;37.90;97733.88;5063216;28;20047;-67
2022/06/19 06:13:37;;;;;;;11.23;6.22;;;;;;;34.58;37.44;97726.69;5044042;28;20049;-67
2022/06/19 06:16:03;;;;;;;10.65;5.78;;;;;;;35.00;37.33;97726.50;5043997;28;20028;-67
2022/06/19 06:18:28;;;;;;;8.25;5.60;;;;;;;35.26;35.61;97726.56;5052654;28;20098;-67
2022/06/19 06:21:19;;;;;;;8.68;5.57;;;;;;;35.16;36.17;97734.34;5063427;28;20024;-67
2022/06/19 06:23:44;;;;;;;11.95;6.35;;;;;;;34.87;36.80;97720.97;5060318;28;20036;-67
2022/06/19 06:26:18;;;;;;;11.50;5.63;;;;;;;35.20;36.36;97730.13;5062645;28;20055;-67
2022/06/19 06:28:46;;;;;;;10.00;5.43;;;;;;;35.33;36.66;97732.94;5062039;28;20078;-67
2022/06/19 06:31:13;;;;;;;11.75;6.00;;;;;;;35.40;36.36;97735.72;5049848;28;20088;-67
2022/06/19 06:33:39;;;;;;;8.75;6.25;;;;;;;35.61;35.74;97736.38;5042853;28;20017;-66
2022/06/19 06:36:05;;;;;;;10.38;5.72;;;;;;;35.72;35.90;97738.53;5050629;28;20040;-67
2022/06/19 06:38:31;;;;;;;8.90;6.28;;;;;;;35.91;35.22;97736.88;5062360;28;20020;-67
2022/06/19 06:40:56;;;;;;;10.93;6.15;;;;;;;35.97;35.58;97736.84;5062818;28;20219;-67
2022/06/19 06:43:22;;;;;;;13.45;6.35;;;;;;;36.00;35.05;97725.47;5060278;28;20025;-67
2022/06/19 06:45:48;;;;;;;9.05;5.78;;;;;;;36.31;35.25;97722.09;5061951;28;20060;-67
2022/06/19 06:48:15;;;;;;;12.32;6.15;;;;;;;36.61;34.57;97723.34;5061787;28;20033;-67
2022/06/19 06:50:41;;;;;;;9.93;5.93;;;;;;;36.84;35.54;97730.03;5061923;28;20021;-67
2022/06/19 06:53:08;;;;;;;12.57;6.00;;;;;;;37.13;33.82;97736.06;5062149;28;20047;-67
2022/06/19 06:55:40;;;;;;;11.55;6.93;;;;;;;36.80;34.84;97739.78;5055773;28;20032;-67
2022/06/19 06:58:06;;;;;;;14.68;6.00;;;;;;;36.81;34.84;97730.47;5042710;28;20017;-67
2022/06/19 07:00:32;;;;;;;11.98;6.22;;;;;;;36.85;34.05;97739.94;5055817;28;20039;-67
2022/06/19 07:02:59;;;;;;;11.57;6.47;;;;;;;37.34;33.98;97746.75;5061510;28;20096;-67
2022/06/19 07:05:25;;;;;;;12.95;6.90;;;;;;;37.68;34.51;97757.34;5062294;28;20312;-67
2022/06/19 07:07:50;;;;;;;9.35;5.90;;;;;;;37.90;32.83;97747.69;5060629;28;20032;-67
2022/06/19 07:10:16;;;;;;;11.30;6.47;;;;;;;37.78;33.81;97743.97;5061695;28;20051;-67
2022/06/19 07:12:41;;;;;;;9.48;6.25;;;;;;;37.93;33.84;97752.75;5060619;28;20098;-67
2022/06/19 07:15:10;;;;;;;8.25;5.45;;;;;;;38.06;33.17;97747.13;5061518;28;20075;-67
2022/06/19 07:17:36;;;;;;;14.23;7.22;;;;;;;37.79;35.15;97751.13;5061911;28;20021;-67
2022/06/19 07:20:02;;;;;;;11.82;5.75;;;;;;;37.62;33.95;97744.47;5060295;28;20216;-67
2022/06/19 07:22:28;;;;;;;15.10;5.95;;;;;;;37.49;33.46;97742.66;5061580;28;20086;-67
2022/06/19 07:24:53;;;;;;;11.70;6.20;;;;;;;37.25;33.75;97745.31;5045657;28;20029;-67
2022/06/19 07:27:18;;;;;;;13.70;6.72;;;;;;;37.57;33.24;97747.88;5044180;28;20029;-67
2022/06/19 07:29:45;;;;;;;13.43;6.20;;;;;;;37.83;33.84;97753.22;5042722;28;20029;-67
2022/06/19 07:32:12;;;;;;;12.45;6.03;;;;;;;38.00;33.64;97754.38;5045640;28;20029;-67
2022/06/19 07:34:39;;;;;;;15.13;6.22;;;;;;;37.97;33.14;97751.22;5055895;28;20070;-67
2022/06/19 07:37:05;;;;;;;12.82;6.00;;;;;;;37.91;33.67;97738.38;5064238;28;20256;-67
2022/06/19 07:39:33;;;;;;;11.85;6.03;;;;;;;37.73;32.27;97732.78;5065347;28;20029;-67
2022/06/19 07:41:59;;;;;;;11.07;6.25;;;;;;;38.28;33.15;97753.97;5065160;28;20025;-67
2022/06/19 07:44:25;;;;;;;9.40;5.70;;;;;;;37.95;31.20;97745.09;5058735;28;20035;-67
2022/06/19 07:52:18;;;;;;;9.75;6.05;;;;;;;37.06;34.71;97732.47;5065050;28;20091;-67
2022/06/19 07:54:44;;;;;;;9.65;5.60;;;;;;;37.28;34.14;97731.16;5064643;28;20020;-67
2022/06/19 07:57:09;;;;;;;13.60;6.22;;;;;;;37.51;32.99;97736.94;5064721;28;20320;-67
2022/06/19 07:59:35;;;;;;;22.98;5.97;;;;;;;37.64;33.75;97747.88;5046933;28;20075;-67
2022/06/19 08:02:00;;;;;;;15.35;5.82;;;;;;;37.81;33.28;97749.03;5055568;28;20025;-67
2022/06/19 08:04:25;;;;;;;9.25;5.35;;;;;;;37.63;33.88;97746.16;5064764;28;20021;-67
2022/06/19 08:06:51;;;;;;;10.40;5.45;;;;;;;38.51;32.73;97752.25;5064481;28;20029;-67
2022/06/19 08:09:17;;;;;;;18.75;5.78;;;;;;;38.51;33.81;97743.16;5064992;28;20088;-67
2022/06/19 08:11:42;;;;;;;20.33;6.32;;;;;;;38.48;32.92;97736.22;5050647;28;20083;-67
2022/06/19 08:14:07;;;;;;;14.63;5.88;;;;;;;38.90;32.45;97745.50;5046317;28;20303;-67
2022/06/19 08:16:34;;;;;;;14.13;5.40;;;;;;;39.33;31.58;97756.44;5045220;28;20036;-67
2022/06/19 08:18:59;;;;;;;9.27;5.32;;;;;;;39.48;31.37;97767.94;5044980;28;20096;-67
2022/06/19 08:21:25;;;;;;;10.52;5.43;;;;;;;39.35;30.61;97765.31;5044999;28;20248;-67
2022/06/19 08:23:50;;;;;;;10.65;5.85;;;;;;;39.49;32.24;97764.09;5044972;28;20038;-67
2022/06/19 08:26:15;;;;;;;9.38;5.40;;;;;;;39.52;31.66;97771.91;5059610;28;20040;-67
2022/06/19 08:31:09;;;;;;;14.40;5.60;;;;;;;39.32;30.88;97763.03;5058016;28;20052;-67
2022/06/19 08:33:34;;;;;;;11.35;5.75;;;;;;;39.61;31.16;97771.34;5044419;28;20221;-67
2022/06/19 08:36:04;;;;;;;11.80;5.95;;;;;;;39.92;30.73;97771.09;5044831;28;20060;-67
2022/06/19 08:38:34;;;;;;;11.20;5.75;;;;;;;39.77;31.27;97775.34;5050421;28;20029;-67
2022/06/19 08:41:15;;;;;;;10.43;6.17;;;;;;;39.31;31.12;97770.44;5048922;28;20313;-67
2022/06/19 08:43:59;;;;;;;;;;;;;;;39.43;31.12;97770.53;5045479;28;20132;-67
2022/06/19 08:46:37;;;;;;;11.45;5.10;;;;;;;39.86;30.59;97774.81;5045871;28;20096;-68
2022/06/19 08:49:22;;;;;;;9.90;5.47;;;;;;;38.86;30.99;97771.81;5046922;28;20059;-68
2022/06/19 08:51:59;;;;;;;9.25;5.15;;;;;;;39.33;31.47;97772.97;5057363;28;20040;-68
2022/06/19 08:54:48;;;;;;;12.85;5.53;;;;;;;39.40;30.73;97771.84;5064701;28;20032;-68
2022/06/19 08:58:16;;;;;;;12.73;5.85;;;;;;;39.85;31.72;97784.16;5065345;28;20032;-68
2022/06/19 09:00:57;;;;;;;9.77;5.47;;;;;;;39.86;30.63;97791.34;5004154;28;20372;-66
2022/06/19 09:06:47;;;;;;;13.43;5.90;;;;;;;40.04;30.01;97780.25;5055237;28;20266;-66
2022/06/19 09:09:27;;;;;;;13.70;5.35;;;;;;;39.86;31.21;97779.50;5064461;28;20336;-66
2022/06/19 09:12:28;;;;;;;16.50;5.88;;;;;;;40.01;30.68;97799.16;5064505;28;20320;-66
2022/06/19 09:15:09;;;;;;;12.60;4.90;;;;;;;40.09;31.01;97785.91;5048758;28;20025;-66
2022/06/19 09:17:59;;;;;;;14.45;5.43;;;;;;;40.09;31.46;97785.91;5057567;28;20037;-66
2022/06/19 09:20:44;;;;;;;12.82;5.68;;;;;;;39.15;31.31;97776.59;5064082;28;20100;-67
2022/06/19 09:23:44;;;;;;;14.23;5.88;;;;;;;39.60;31.59;97786.19;5048004;28;20029;-66
2022/06/19 09:26:25;;;;;;;11.52;5.70;;;;;;;39.77;31.25;97792.75;5053184;28;20032;-68
2022/06/19 09:29:13;;;;;;;9.93;5.13;;;;;;;39.82;30.81;97790.13;5057859;28;20074;-68
2022/06/19 09:31:53;;;;;;;10.15;5.78;;;;;;;40.00;30.58;97790.09;5061260;28;20139;-68
2022/06/19 09:34:39;;;;;;;14.23;4.78;;;;;;;39.80;31.13;97784.00;5060845;28;20021;-69
2022/06/19 09:37:25;;;;;;;14.13;5.40;;;;;;;39.76;31.54;97762.66;5044607;28;20224;-69
2022/06/19 09:40:12;;;;;;;12.98;6.25;;;;;;;39.75;31.01;97759.06;5044750;28;20029;-69
2022/06/19 09:43:09;;;;;;;14.27;5.78;;;;;;;40.02;30.05;97757.59;5044494;28;20041;-70
2022/06/19 09:45:45;;;;;;;14.30;5.88;;;;;;;39.71;30.34;97760.59;5043081;28;20100;-70
2022/06/19 09:48:42;;;;;;;7.75;5.28;;;;;;;39.46;31.66;97757.16;5044384;28;20021;-70
2022/06/19 09:51:07;;;;;;;13.32;5.55;;;;;;;39.50;31.54;97768.53;5042766;28;20037;-70
2022/06/19 09:53:39;;;;;;;10.93;5.60;;;;;;;39.99;31.35;97769.13;5043839;28;20029;-70
2022/06/19 09:56:30;;;;;;;12.02;5.97;;;;;;;40.16;31.19;97775.63;5047590;28;20504;-68
2022/06/19 09:59:08;;;;;;;17.17;5.85;;;;;;;39.76;31.40;97757.16;5063671;28;20031;-68
2022/06/19 10:01:35;;;;;;;15.27;5.65;;;;;;;39.38;30.71;97754.66;5063670;28;20039;-68
2022/06/19 10:04:05;;;;;;;16.77;6.43;;;;;;;39.38;31.41;97749.16;5063573;28;20027;-69
2022/06/19 10:06:50;;;;;;;10.98;5.78;;;;;;;39.50;31.25;97763.88;5061952;28;20033;-69
2022/06/19 10:09:27;;;;;;;12.57;5.07;;;;;;;38.82;32.54;97754.09;5047454;28;20025;-69
2022/06/19 10:11:58;;;;;;;11.18;5.15;;;;;;;39.98;30.86;97777.63;5044095;28;20036;-69
2022/06/19 10:14:26;;;;;;;;;;;;;;;39.63;31.27;97755.41;5060440;28;20024;-69
2022/06/19 10:16:57;;;;;;;12.43;5.15;;;;;;;39.33;30.43;97760.06;5062291;28;20144;-69
2022/06/19 10:19:57;;;;;;;11.70;5.70;;;;;;;39.61;32.30;97765.84;5063493;28;20028;-69
2022/06/19 10:22:28;;;;;;;12.55;5.70;;;;;;;40.15;30.89;97762.91;5043916;28;20071;-69
2022/06/19 10:25:04;;;;;;;10.43;5.82;;;;;;;39.83;29.99;97758.75;5054078;28;20049;-69
2022/06/19 10:27:33;;;;;;;22.83;6.90;;;;;;;40.05;30.97;97754.34;5060746;28;20186;-69
2022/06/19 10:30:12;;;;;;;17.25;5.28;;;;;;;40.15;31.64;97757.41;5063851;28;20023;-69
2022/06/19 10:33:05;;;;;;;13.70;6.13;;;;;;;39.93;31.17;97755.41;5062023;28;20032;-69
2022/06/19 10:35:57;;;;;;;15.80;6.40;;;;;;;39.14;31.20;97741.88;5063061;28;20037;-69
2022/06/19 10:38:28;;;;;;;13.02;5.95;;;;;;;39.20;31.46;97745.59;5063305;28;20091;-69
2022/06/19 10:41:09;;;;;;;14.60;6.07;;;;;;;39.35;32.21;97749.63;5059707;28;20096;-69
2022/06/19 10:43:43;;;;;;;12.75;5.50;;;;;;;39.77;32.05;97743.13;5043816;28;20076;-69
2022/06/19 10:46:13;;;;;;;12.82;5.85;;;;;;;39.83;31.33;97733.94;5043724;28;20022;-69
2022/06/19 10:49:01;;;;;;;8.70;5.28;;;;;;;39.78;31.14;97739.28;5044008;28;20034;-69
2022/06/19 10:51:55;;;;;;;11.38;6.43;;;;;;;39.60;31.85;97731.09;5044900;28;20097;-69
2022/06/19 10:54:20;;;;;;;12.18;5.97;;;;;;;39.42;32.84;97731.16;5043689;28;20025;-69
2022/06/19 10:56:50;;;;;;;13.13;5.50;;;;;;;39.42;31.43;97738.56;5043692;28;20256;-69
2022/06/19 10:59:17;;;;;;;10.50;5.27;;;;;;;39.41;32.05;97728.63;5043891;28;20266;-69
2022/06/19 11:04:43;;;;;;;18.05;5.25;;;;;;;39.39;32.92;97737.13;5062684;28;20032;-69
2022/06/19 11:07:16;;;;;;;14.32;6.05;;;;;;;39.40;31.87;97740.69;5066405;28;20028;-69
2022/06/19 11:09:46;;;;;;;22.05;6.00;;;;;;;39.42;31.89;97739.41;5059596;28;20025;-69
2022/06/19 11:12:34;;;;;;;15.80;6.05;;;;;;;39.50;30.86;97736.31;5067077;28;20320;-69
2022/06/19 11:15:03;;;;;;;13.85;5.55;;;;;;;39.43;32.06;97723.72;5066726;28;20232;-69
2022/06/19 11:17:39;;;;;;;18.83;6.28;;;;;;;39.10;32.76;97710.38;5066699;28;20044;-69
2022/06/19 11:20:17;;;;;;;15.45;6.65;;;;;;;38.29;32.64;97692.41;5062318;28;20092;-69
2022/06/19 11:22:47;;;;;;;16.17;5.85;;;;;;;38.09;32.56;97702.75;5046985;28;20100;-69
2022/06/19 11:25:18;;;;;;;11.13;5.22;;;;;;;37.99;32.90;97702.38;5047101;28;20329;-69
2022/06/19 11:27:59;;;;;;;;;;;;;;;37.87;32.69;97699.53;5047682;28;20025;-69
2022/06/19 11:30:31;;;;;;;16.10;6.38;;;;;;;37.76;33.17;97691.16;5053558;28;20196;-69
2022/06/19 11:32:56;;;;;;;10.35;5.55;;;;;;;37.98;33.32;97700.69;5066061;28;20024;-69
2022/06/19 11:35:23;;;;;;;12.50;5.13;;;;;;;37.71;33.58;97699.22;5066461;28;20028;-69
2022/06/19 11:37:52;;;;;;;17.02;5.78;;;;;;;37.63;34.20;97699.44;5057785;28;20029;-69
2022/06/19 11:40:26;;;;;;;15.27;6.43;;;;;;;37.63;35.11;97708.53;5051986;28;20047;-69
2022/06/19 11:42:55;;;;;;;14.23;5.80;;;;;;;37.37;33.29;97686.75;5065948;28;20194;-69
2022/06/19 11:45:22;;;;;;;17.60;6.68;;;;;;;36.84;34.42;97694.38;5066160;28;20029;-69
2022/06/19 11:48:00;;;;;;;14.63;5.82;;;;;;;36.68;35.14;97686.59;5065892;28;20073;-69
2022/06/19 11:50:37;;;;;;;9.85;5.68;;;;;;;36.82;36.61;97701.97;5052819;28;20105;-69
2022/06/19 11:53:20;;;;;;;11.48;5.60;;;;;;;36.51;35.38;97687.28;5065699;28;20067;-69
2022/06/19 11:55:47;;;;;;;15.13;6.25;;;;;;;36.12;36.49;97669.00;5050627;28;20037;-69